Time;durP1;ratioP1;P1;durP2;ratioP2;P2;SDS_P1;SDS_P2;PMS_P1;PMS_P2;Temp;Humidity;BMP_temperature;BMP_pressure;BME280_temperature;BME280_humidity;BME280_pressure;Samples;Min_cycle;Max_cycle;Signal;HPM_P1;HPM_P2
2023/11/16 00:01:07;;;;;;;12.00;2.05;;;;;;;9.54;100.00;100387.59;5203711;28;20491;-73
2023/11/16 00:03:38;;;;;;;8.05;1.75;;;;;;;9.64;100.00;100386.34;5204091;28;20025;-74
2023/11/16 00:06:10;;;;;;;11.85;2.08;;;;;;;9.60;100.00;100383.91;5205527;28;20033;-74
2023/11/16 00:08:41;;;;;;;14.45;2.00;;;;;;;9.50;100.00;100385.97;5204218;28;20026;-74
2023/11/16 00:11:11;;;;;;;11.88;1.88;;;;;;;9.53;100.00;100383.28;5204449;28;20119;-72
2023/11/16 00:13:41;;;;;;;6.05;1.70;;;;;;;9.49;100.00;100381.66;5186687;28;20058;-72
2023/11/16 00:16:12;;;;;;;16.58;1.98;;;;;;;9.48;100.00;100376.53;5204692;28;20056;-73
2023/11/16 00:18:43;;;;;;;7.57;1.40;;;;;;;9.58;100.00;100383.97;5204265;28;20116;-74
2023/11/16 00:21:13;;;;;;;5.95;1.30;;;;;;;9.48;100.00;100379.97;5203963;28;20026;-73
2023/11/16 00:23:43;;;;;;;5.55;1.25;;;;;;;9.53;100.00;100375.47;5205962;28;20056;-72
2023/11/16 00:26:14;;;;;;;11.20;1.45;;;;;;;9.57;100.00;100370.97;5203860;28;20029;-72
2023/11/16 00:28:45;;;;;;;8.02;1.60;;;;;;;9.57;100.00;100371.84;5202838;28;20013;-73
2023/11/16 00:31:16;;;;;;;7.13;1.27;;;;;;;9.57;100.00;100363.13;5203852;28;20505;-71
2023/11/16 00:33:46;;;;;;;8.73;1.20;;;;;;;9.62;100.00;100356.03;5205866;28;20045;-73
2023/11/16 00:36:18;;;;;;;11.02;1.42;;;;;;;9.59;100.00;100358.72;5210469;28;20415;-73
2023/11/16 00:38:48;;;;;;;12.02;1.70;;;;;;;9.52;100.00;100362.47;5203980;28;20112;-73
2023/11/16 00:41:19;;;;;;;5.53;1.17;;;;;;;9.54;100.00;100363.25;5207803;28;20413;-74
2023/11/16 00:43:49;;;;;;;8.43;1.48;;;;;;;9.53;100.00;100359.81;5189109;28;20028;-73
2023/11/16 00:46:21;;;;;;;6.95;1.35;;;;;;;9.61;100.00;100354.28;5209015;28;20029;-73
2023/11/16 00:48:52;;;;;;;9.63;1.95;;;;;;;9.66;100.00;100349.78;5206715;28;20021;-73
2023/11/16 00:51:22;;;;;;;8.73;1.92;;;;;;;9.63;100.00;100353.34;5204792;28;20032;-73
2023/11/16 00:53:52;;;;;;;9.38;1.98;;;;;;;9.67;100.00;100357.53;5205417;28;20016;-74
2023/11/16 00:56:23;;;;;;;10.85;1.90;;;;;;;9.69;100.00;100357.50;5206452;28;20498;-74
2023/11/16 00:58:55;;;;;;;5.72;1.35;;;;;;;9.67;100.00;100341.88;5210014;28;20028;-74
2023/11/16 01:01:27;;;;;;;11.45;1.95;;;;;;;9.54;100.00;100350.22;5202226;28;20021;-74
2023/11/16 01:03:57;;;;;;;8.23;2.22;;;;;;;9.53;100.00;100340.69;5208305;28;20434;-73
2023/11/16 01:06:28;;;;;;;16.05;2.30;;;;;;;9.60;100.00;100342.16;5201925;28;20087;-70
2023/11/16 01:08:59;;;;;;;9.32;1.83;;;;;;;9.58;100.00;100343.97;5208136;28;20052;-69
2023/11/16 01:11:29;;;;;;;9.85;2.05;;;;;;;9.58;100.00;100336.16;5207997;28;20454;-73
2023/11/16 01:14:02;;;;;;;6.53;1.73;;;;;;;9.61;100.00;100338.66;5209780;28;20037;-73
2023/11/16 01:16:42;;;;;;;9.50;1.70;;;;;;;9.58;100.00;100349.19;5203692;28;20032;-73
2023/11/16 01:19:15;;;;;;;7.75;1.95;;;;;;;9.50;100.00;100339.03;5206203;28;20025;-73
2023/11/16 01:21:54;;;;;;;6.28;1.88;;;;;;;9.55;100.00;100336.25;5207128;28;20479;-72
2023/11/16 01:24:37;;;;;;;7.32;1.92;;;;;;;9.40;100.00;100336.78;5200909;28;20049;-73
2023/11/16 01:27:15;;;;;;;7.07;1.60;;;;;;;9.46;100.00;100336.59;5208257;28;20021;-74
2023/11/16 01:29:46;;;;;;;9.50;1.75;;;;;;;9.52;100.00;100336.38;5206491;28;20017;-74
2023/11/16 01:32:17;;;;;;;8.15;1.90;;;;;;;9.52;100.00;100341.59;5202200;28;20040;-73
2023/11/16 01:34:47;;;;;;;8.80;1.65;;;;;;;9.52;100.00;100338.97;5205841;28;20598;-74
2023/11/16 01:37:18;;;;;;;10.68;1.65;;;;;;;9.53;100.00;100317.22;5187549;28;20032;-71
2023/11/16 01:39:48;;;;;;;12.23;2.03;;;;;;;9.44;100.00;100323.59;5210011;28;20016;-73
2023/11/16 01:42:18;;;;;;;8.50;1.48;;;;;;;9.45;100.00;100327.06;5202039;28;20506;-73
2023/11/16 01:44:55;;;;;;;7.22;1.60;;;;;;;9.57;100.00;100321.41;5188959;28;20024;-70
2023/11/16 01:47:26;;;;;;;14.60;2.20;;;;;;;9.39;100.00;100319.44;5207802;28;20088;-74
2023/11/16 01:49:56;;;;;;;9.30;2.00;;;;;;;9.41;100.00;100330.66;5205020;28;20024;-75
2023/11/16 01:52:27;;;;;;;9.02;2.13;;;;;;;9.48;100.00;100327.78;5200455;28;20021;-75
2023/11/16 01:54:58;;;;;;;13.48;2.33;;;;;;;9.46;100.00;100329.59;5214682;28;20037;-75
2023/11/16 01:57:28;;;;;;;7.82;2.10;;;;;;;9.44;100.00;100317.50;5200421;28;20027;-74
2023/11/16 01:59:58;;;;;;;8.60;2.42;;;;;;;9.48;100.00;100319.13;5207838;28;20059;-75
2023/11/16 02:02:30;;;;;;;12.40;2.63;;;;;;;9.41;100.00;100310.66;5207493;28;20399;-75
2023/11/16 02:05:02;;;;;;;7.80;2.20;;;;;;;9.49;100.00;100315.63;5204160;28;20033;-73
2023/11/16 02:07:33;;;;;;;6.60;2.15;;;;;;;9.51;100.00;100312.03;5203388;28;20482;-72
2023/11/16 02:10:05;;;;;;;9.38;2.13;;;;;;;9.49;100.00;100307.78;5204299;28;20047;-73
2023/11/16 02:12:35;;;;;;;13.93;2.70;;;;;;;9.47;100.00;100309.59;5188810;28;20045;-74
2023/11/16 02:15:06;;;;;;;13.52;2.67;;;;;;;9.49;100.00;100306.03;5189454;28;20375;-75
2023/11/16 02:17:39;;;;;;;5.55;2.10;;;;;;;9.36;100.00;100304.78;5203956;28;20431;-74
2023/11/16 02:20:10;;;;;;;11.23;2.13;;;;;;;9.33;100.00;100302.25;5200627;28;20029;-74
2023/11/16 02:22:42;;;;;;;8.50;1.85;;;;;;;9.31;100.00;100309.28;5187842;28;20036;-74
2023/11/16 02:25:12;;;;;;;5.50;1.50;;;;;;;9.26;100.00;100302.50;5201126;28;20076;-74
2023/11/16 02:27:42;;;;;;;15.00;2.08;;;;;;;9.24;100.00;100314.75;5188357;28;20083;-75
2023/11/16 02:30:13;;;;;;;13.00;1.95;;;;;;;9.30;100.00;100304.13;5199507;28;20040;-75
2023/11/16 02:32:43;;;;;;;7.40;1.80;;;;;;;9.30;100.00;100302.34;5204767;28;20664;-74
2023/11/16 02:35:13;;;;;;;8.00;1.70;;;;;;;9.46;100.00;100303.53;5209404;28;20449;-74
2023/11/16 02:37:43;;;;;;;8.80;2.20;;;;;;;9.41;100.00;100305.47;5202834;28;20032;-74
2023/11/16 02:40:17;;;;;;;10.55;1.85;;;;;;;9.32;100.00;100310.13;5200432;28;20040;-74
2023/11/16 02:42:47;;;;;;;8.75;1.88;;;;;;;9.28;100.00;100305.94;5202895;28;20510;-74
2023/11/16 02:45:25;;;;;;;4.20;1.50;;;;;;;9.36;100.00;100306.50;5202616;28;20043;-74
2023/11/16 02:47:56;;;;;;;7.78;1.77;;;;;;;9.36;100.00;100306.50;5199507;28;21501;-74
2023/11/16 02:50:27;;;;;;;11.65;1.50;;;;;;;9.37;100.00;100308.22;5200113;28;20072;-74
2023/11/16 02:52:57;;;;;;;7.25;1.40;;;;;;;9.35;100.00;100300.44;5199344;28;20064;-74
2023/11/16 02:55:29;;;;;;;11.63;1.70;;;;;;;9.39;100.00;100301.19;5202967;28;20018;-74
2023/11/16 02:58:00;;;;;;;10.48;2.00;;;;;;;9.33;100.00;100301.41;5200435;28;20029;-75
2023/11/16 03:00:32;;;;;;;7.50;1.80;;;;;;;9.34;100.00;100298.72;5199466;28;20032;-74
2023/11/16 03:03:02;;;;;;;10.88;1.92;;;;;;;9.35;100.00;100303.03;5199373;28;20479;-74
2023/11/16 03:05:33;;;;;;;6.20;1.58;;;;;;;9.42;100.00;100293.25;5199469;28;20075;-74
2023/11/16 03:08:03;;;;;;;10.77;2.03;;;;;;;9.36;100.00;100296.09;5203077;28;20021;-74
2023/11/16 03:10:34;;;;;;;9.63;2.00;;;;;;;9.51;100.00;100290.34;5200973;28;20033;-74
2023/11/16 03:13:05;;;;;;;14.98;2.60;;;;;;;9.46;100.00;100294.88;5202051;28;20392;-75
2023/11/16 03:15:35;;;;;;;7.47;2.00;;;;;;;9.50;100.00;100299.06;5205733;28;20032;-75
2023/11/16 03:18:05;;;;;;;9.55;2.75;;;;;;;9.48;100.00;100296.50;5198895;28;20494;-75
2023/11/16 03:20:36;;;;;;;10.65;2.10;;;;;;;9.50;100.00;100291.25;5200180;28;20048;-75
2023/11/16 03:23:06;;;;;;;8.60;2.05;;;;;;;9.51;100.00;100292.94;5201070;28;20036;-75
2023/11/16 03:25:36;;;;;;;8.75;2.17;;;;;;;9.55;100.00;100286.69;5200038;28;20036;-75
2023/11/16 03:28:06;;;;;;;8.85;2.05;;;;;;;9.44;100.00;100286.22;5200709;28;20032;-75
2023/11/16 03:30:38;;;;;;;8.52;2.03;;;;;;;9.51;100.00;100287.72;5202824;28;20074;-75
2023/11/16 03:33:10;;;;;;;11.38;2.10;;;;;;;9.48;100.00;100270.41;5201826;28;20429;-75
2023/11/16 03:35:48;;;;;;;10.95;2.22;;;;;;;9.54;100.00;100277.16;5199826;28;20032;-73
2023/11/16 03:38:18;;;;;;;10.68;1.92;;;;;;;9.50;100.00;100275.59;5185094;28;20032;-75
2023/11/16 03:40:49;;;;;;;8.60;2.30;;;;;;;9.64;100.00;100270.72;5198997;28;20025;-73
2023/11/16 03:43:19;;;;;;;10.38;1.83;;;;;;;9.62;100.00;100273.38;5199056;28;20025;-75
2023/11/16 03:45:49;;;;;;;8.80;2.17;;;;;;;9.58;100.00;100263.09;5198768;28;20029;-75
2023/11/16 03:48:22;;;;;;;9.32;1.88;;;;;;;9.58;100.00;100266.56;5198452;28;20064;-75
2023/11/16 03:50:52;;;;;;;9.05;1.52;;;;;;;9.63;100.00;100271.63;5200723;28;20047;-74
2023/11/16 03:53:22;;;;;;;8.85;1.75;;;;;;;9.59;100.00;100268.28;5198624;28;20025;-75
2023/11/16 03:55:53;;;;;;;4.50;1.35;;;;;;;9.51;100.00;100259.03;5202721;28;20029;-75
2023/11/16 03:58:23;;;;;;;6.40;1.60;;;;;;;9.63;100.00;100274.25;5199869;28;20017;-76
2023/11/16 04:00:53;;;;;;;8.75;1.42;;;;;;;9.74;100.00;100266.84;5199369;28;20033;-75
2023/11/16 04:03:24;;;;;;;6.82;1.55;;;;;;;9.65;100.00;100259.38;5198068;28;20159;-72
2023/11/16 04:05:55;;;;;;;13.00;2.97;;;;;;;9.62;100.00;100265.56;5204122;28;20049;-75
2023/11/16 04:08:26;;;;;;;6.53;1.50;;;;;;;9.75;100.00;100261.59;5199051;28;20068;-73
2023/11/16 04:10:57;;;;;;;8.15;1.83;;;;;;;9.70;100.00;100265.28;5200096;28;20068;-76
2023/11/16 04:13:27;;;;;;;5.43;1.42;;;;;;;9.76;100.00;100267.63;5201547;28;20017;-75
2023/11/16 04:15:59;;;;;;;11.00;1.88;;;;;;;9.75;100.00;100261.59;5206279;28;20029;-75
2023/11/16 04:18:30;;;;;;;7.85;1.58;;;;;;;9.74;100.00;100269.47;5203399;28;20405;-75
2023/11/16 04:21:00;;;;;;;7.47;1.63;;;;;;;9.67;100.00;100276.66;5202215;28;20025;-73
2023/11/16 04:23:30;;;;;;;8.90;1.60;;;;;;;9.69;100.00;100263.56;5191058;28;20025;-75
2023/11/16 04:26:01;;;;;;;9.10;1.65;;;;;;;9.67;100.00;100270.59;5202889;28;20037;-73
2023/11/16 04:28:33;;;;;;;5.40;1.83;;;;;;;9.67;100.00;100260.16;5187577;28;20018;-75
2023/11/16 04:31:04;;;;;;;4.93;1.40;;;;;;;9.73;100.00;100257.31;5201401;28;20262;-74
2023/11/16 04:33:35;;;;;;;4.78;1.42;;;;;;;9.68;100.00;100267.09;5205149;28;20029;-75
2023/11/16 04:36:06;;;;;;;4.57;1.30;;;;;;;9.63;100.00;100263.81;5204840;28;20030;-75
2023/11/16 04:38:36;;;;;;;5.43;1.42;;;;;;;9.68;100.00;100261.88;5203707;28;20467;-76
2023/11/16 04:41:07;;;;;;;7.88;1.50;;;;;;;9.63;100.00;100253.38;5202697;28;20270;-76
2023/11/16 04:43:37;;;;;;;5.93;1.27;;;;;;;9.68;100.00;100257.47;5205341;28;20530;-75
2023/11/16 04:46:07;;;;;;;4.90;1.30;;;;;;;9.64;100.00;100249.84;5195212;28;20254;-75
2023/11/16 04:48:42;;;;;;;4.45;1.38;;;;;;;9.69;100.00;100250.53;5201320;28;20079;-75
2023/11/16 04:51:19;;;;;;;6.15;1.40;;;;;;;9.80;100.00;100251.81;5203146;28;20040;-75
2023/11/16 04:53:50;;;;;;;7.53;1.27;;;;;;;9.79;100.00;100249.28;5184726;28;20253;-74
2023/11/16 04:56:21;;;;;;;7.20;1.30;;;;;;;9.84;100.00;100257.78;5201152;28;20581;-75
2023/11/16 04:58:51;;;;;;;8.30;1.85;;;;;;;9.76;100.00;100247.63;5200137;28;20108;-75
2023/11/16 05:01:23;;;;;;;10.88;2.08;;;;;;;9.78;100.00;100248.41;5185812;28;20495;-75
2023/11/16 05:03:53;;;;;;;9.75;1.60;;;;;;;9.74;100.00;100240.75;5184628;28;20025;-75
2023/11/16 05:06:23;;;;;;;8.25;1.63;;;;;;;9.73;100.00;100234.69;5202148;28;20044;-75
2023/11/16 05:08:54;;;;;;;6.15;1.63;;;;;;;9.61;100.00;100234.28;5200250;28;20037;-75
2023/11/16 05:11:24;;;;;;;10.80;1.80;;;;;;;9.75;100.00;100234.63;5200463;28;20458;-72
2023/11/16 05:13:55;;;;;;;7.35;1.48;;;;;;;9.70;100.00;100233.97;5186169;28;20144;-75
2023/11/16 05:16:26;;;;;;;6.30;1.52;;;;;;;9.74;100.00;100231.19;5201239;28;20025;-74
2023/11/16 05:18:57;;;;;;;6.55;1.50;;;;;;;9.67;100.00;100231.47;5185780;28;20227;-75
2023/11/16 05:21:27;;;;;;;8.23;1.63;;;;;;;9.69;100.00;100233.09;5201675;28;20292;-75
2023/11/16 05:23:57;;;;;;;7.00;1.60;;;;;;;9.72;100.00;100239.97;5204549;28;20036;-75
2023/11/16 05:26:28;;;;;;;14.90;1.80;;;;;;;9.65;100.00;100236.72;5188346;28;20025;-75
2023/11/16 05:28:58;;;;;;;8.95;1.67;;;;;;;9.67;100.00;100240.13;5185970;28;20507;-75
2023/11/16 05:31:29;;;;;;;8.52;1.90;;;;;;;9.67;100.00;100245.34;5202459;28;20029;-75
2023/11/16 05:33:59;;;;;;;6.32;1.45;;;;;;;9.63;100.00;100242.94;5201562;28;20029;-75
2023/11/16 05:36:30;;;;;;;6.28;2.45;;;;;;;9.65;100.00;100247.16;5201552;28;20025;-75
2023/11/16 05:39:00;;;;;;;7.10;1.42;;;;;;;9.63;100.00;100248.16;5202364;28;20056;-75
2023/11/16 05:41:31;;;;;;;5.75;1.23;;;;;;;9.73;100.00;100239.06;5188646;28;20045;-75
2023/11/16 05:44:02;;;;;;;5.03;1.85;;;;;;;9.59;100.00;100241.31;5198839;28;20342;-72
2023/11/16 05:46:32;;;;;;;8.75;1.20;;;;;;;9.63;100.00;100245.53;5202234;28;20107;-75
2023/11/16 05:49:03;;;;;;;3.88;1.20;;;;;;;9.62;100.00;100241.25;5204563;28;20618;-73
2023/11/16 05:51:33;;;;;;;6.30;1.60;;;;;;;9.68;100.00;100248.81;5203479;28;20525;-75
2023/11/16 05:54:10;;;;;;;4.30;1.17;;;;;;;9.74;100.00;100248.59;5200170;28;20055;-74
2023/11/16 05:56:44;;;;;;;7.25;1.00;;;;;;;9.61;100.00;100248.19;5202033;28;20315;-75
2023/11/16 05:59:15;;;;;;;6.35;1.10;;;;;;;9.62;100.00;100249.91;5201565;28;20021;-75
2023/11/16 06:01:45;;;;;;;5.28;1.23;;;;;;;9.63;100.00;100253.38;5183593;28;20436;-75
2023/11/16 06:04:16;;;;;;;5.85;1.30;;;;;;;9.50;100.00;100250.34;5200180;28;20607;-75
2023/11/16 06:06:46;;;;;;;7.63;1.00;;;;;;;9.44;100.00;100254.91;5202697;28;20367;-73
2023/11/16 06:09:16;;;;;;;5.50;1.00;;;;;;;9.34;100.00;100264.00;5186546;28;20058;-75
2023/11/16 06:11:47;;;;;;;4.93;1.02;;;;;;;9.28;100.00;100267.66;5202340;28;20539;-75
2023/11/16 06:14:17;;;;;;;4.47;1.20;;;;;;;9.22;100.00;100272.25;5200660;28;21010;-75
2023/11/16 06:16:48;;;;;;;5.78;1.35;;;;;;;9.29;100.00;100269.38;5200516;28;20032;-73
2023/11/16 06:19:18;;;;;;;5.32;1.52;;;;;;;9.17;100.00;100275.00;5183622;28;20029;-75
2023/11/16 06:21:48;;;;;;;9.75;1.38;;;;;;;9.22;100.00;100274.84;5202435;28;20031;-75
2023/11/16 06:24:18;;;;;;;5.70;1.33;;;;;;;9.18;100.00;100281.09;5184516;28;20132;-75
2023/11/16 06:26:49;;;;;;;6.15;1.60;;;;;;;9.13;100.00;100281.22;5199504;28;20021;-74
2023/11/16 06:29:19;;;;;;;8.80;1.80;;;;;;;9.20;100.00;100287.09;5198470;28;20440;-75
2023/11/16 06:31:50;;;;;;;5.22;1.58;;;;;;;9.12;100.00;100286.50;5200869;28;20078;-76
2023/11/16 06:34:21;;;;;;;3.75;1.20;;;;;;;9.07;100.00;100293.63;5202558;28;20367;-75
2023/11/16 06:36:51;;;;;;;8.70;1.52;;;;;;;9.09;100.00;100294.41;5198073;28;20020;-74
2023/11/16 06:39:22;;;;;;;4.70;1.27;;;;;;;8.94;100.00;100292.34;5198159;28;21468;-75
2023/11/16 06:41:52;;;;;;;4.85;1.23;;;;;;;8.93;100.00;100295.00;5199269;28;20281;-74
2023/11/16 06:44:23;;;;;;;7.07;1.33;;;;;;;8.95;100.00;100290.59;5198351;28;20134;-74
2023/11/16 06:46:54;;;;;;;5.28;1.27;;;;;;;8.96;100.00;100290.53;5185482;28;20052;-74
2023/11/16 06:49:28;;;;;;;4.00;1.10;;;;;;;8.99;100.00;100305.22;5178332;28;20667;-72
2023/11/16 06:51:58;;;;;;;2.28;0.85;;;;;;;8.98;100.00;100304.38;5201598;28;20552;-72
2023/11/16 06:54:32;;;;;;;5.03;1.20;;;;;;;8.98;100.00;100304.38;5199052;28;20029;-74
2023/11/16 06:57:04;;;;;;;3.25;0.98;;;;;;;8.93;100.00;100306.25;5196198;28;20032;-72
2023/11/16 06:59:34;;;;;;;4.30;1.17;;;;;;;8.84;100.00;100319.59;5196859;28;20365;-73
2023/11/16 07:02:07;;;;;;;6.18;1.05;;;;;;;8.81;100.00;100319.72;5202365;28;20021;-71
2023/11/16 07:04:38;;;;;;;5.05;1.15;;;;;;;8.73;100.00;100321.69;5193680;28;20454;-73
2023/11/16 07:07:09;;;;;;;6.80;0.95;;;;;;;8.69;100.00;100319.25;5199678;28;20031;-74
2023/11/16 07:09:44;;;;;;;2.90;1.23;;;;;;;8.73;100.00;100326.91;5202759;28;20037;-74
2023/11/16 07:12:19;;;;;;;;;;;;;;;8.81;100.00;100327.53;5201147;28;20028;-74
2023/11/16 07:14:52;;;;;;;5.38;0.95;;;;;;;8.77;100.00;100323.31;5184488;28;20004;-75
2023/11/16 07:17:22;;;;;;;3.63;1.13;;;;;;;8.83;100.00;100330.94;5201370;28;20590;-74
2023/11/16 07:19:53;;;;;;;3.95;1.02;;;;;;;8.87;100.00;100337.75;5202588;28;20112;-74
2023/11/16 07:22:25;;;;;;;4.65;1.05;;;;;;;8.82;100.00;100334.44;5203390;28;20407;-72
2023/11/16 07:24:56;;;;;;;5.90;1.15;;;;;;;8.71;100.00;100344.34;5206968;28;20057;-74
2023/11/16 07:27:26;;;;;;;4.43;1.00;;;;;;;8.79;100.00;100346.72;5184570;28;20068;-74
2023/11/16 07:29:56;;;;;;;7.45;1.30;;;;;;;8.80;100.00;100349.28;5203809;28;20021;-74
2023/11/16 07:32:27;;;;;;;4.82;1.00;;;;;;;8.78;100.00;100348.47;5202467;28;20036;-74
2023/11/16 07:34:58;;;;;;;6.05;1.17;;;;;;;8.77;100.00;100348.50;5205418;28;20044;-73
2023/11/16 07:37:28;;;;;;;5.53;1.08;;;;;;;8.70;100.00;100349.63;5186271;28;20035;-74
2023/11/16 07:39:58;;;;;;;3.13;1.13;;;;;;;8.69;100.00;100353.13;5204579;28;20033;-74
2023/11/16 07:42:30;;;;;;;6.25;1.25;;;;;;;8.89;100.00;100362.00;5202679;28;20021;-75
2023/11/16 07:45:01;;;;;;;4.35;0.93;;;;;;;8.94;100.00;100365.31;5204963;28;20030;-73
2023/11/16 07:47:31;;;;;;;3.10;1.10;;;;;;;9.00;100.00;100367.72;5185113;28;20048;-73
2023/11/16 07:50:04;;;;;;;5.28;1.25;;;;;;;9.00;100.00;100364.25;5203931;28;20048;-73
2023/11/16 07:52:42;;;;;;;3.08;0.98;;;;;;;9.22;100.00;100368.72;5210415;28;20025;-73
2023/11/16 07:55:18;;;;;;;3.38;1.00;;;;;;;9.12;100.00;100366.47;5206800;28;20045;-74
2023/11/16 07:57:49;;;;;;;4.70;1.10;;;;;;;9.46;100.00;100365.28;5194580;28;20154;-74
2023/11/16 08:00:25;;;;;;;8.50;1.23;;;;;;;9.92;100.00;100363.59;5209658;28;20573;-73
2023/11/16 08:05:48;;;;;;;2.28;0.85;;;;;;;12.24;88.86;100363.53;5212015;28;20151;-74
2023/11/16 08:08:20;;;;;;;2.85;1.00;;;;;;;12.46;85.52;100365.13;5209175;28;20378;-72
2023/11/16 08:10:51;;;;;;;2.65;0.80;;;;;;;11.84;84.68;100372.38;5207518;28;20025;-73
2023/11/16 08:13:22;;;;;;;4.93;0.90;;;;;;;11.36;86.50;100371.81;5206353;28;20541;-73
2023/11/16 08:15:56;;;;;;;4.05;1.15;;;;;;;10.53;89.70;100376.09;5208484;28;20039;-74
2023/11/16 08:18:26;;;;;;;4.32;1.08;;;;;;;9.71;93.35;100373.94;5204648;28;20025;-74
2023/11/16 08:20:57;;;;;;;5.18;1.00;;;;;;;9.36;95.60;100382.13;5194663;28;20115;-73
2023/11/16 08:23:29;;;;;;;2.40;0.75;;;;;;;9.15;96.83;100382.88;5190070;28;20033;-73
2023/11/16 08:25:59;;;;;;;4.15;0.88;;;;;;;9.03;98.33;100387.63;5205662;28;20568;-73
2023/11/16 08:28:31;;;;;;;3.83;1.00;;;;;;;9.00;98.92;100391.19;5204996;28;20033;-74
2023/11/16 08:31:01;;;;;;;4.28;0.98;;;;;;;9.00;99.74;100399.00;5191181;28;20044;-73
2023/11/16 08:33:33;;;;;;;3.20;0.93;;;;;;;9.07;99.97;100397.88;5206506;28;20017;-73
2023/11/16 08:36:03;;;;;;;2.88;0.98;;;;;;;9.14;98.67;100404.63;5205636;28;20035;-73
2023/11/16 08:38:39;;;;;;;3.15;1.00;;;;;;;9.21;99.34;100400.91;5191156;28;20437;-73
2023/11/16 08:41:16;;;;;;;;;;;;;;;9.12;98.88;100402.97;5192206;28;20119;-73
2023/11/16 08:43:50;;;;;;;4.03;0.93;;;;;;;9.06;98.88;100404.00;5205557;28;19917;-73
2023/11/16 08:46:20;;;;;;;5.15;1.00;;;;;;;8.98;99.62;100406.00;5186787;28;20399;-74
2023/11/16 08:48:51;;;;;;;3.88;1.15;;;;;;;8.98;99.74;100399.94;5206307;28;20025;-73
2023/11/16 08:51:23;;;;;;;2.53;1.20;;;;;;;8.98;100.00;100406.00;5204506;28;20034;-72
2023/11/16 08:53:56;;;;;;;2.83;0.70;;;;;;;9.01;100.00;100411.13;5209066;28;20450;-73
2023/11/16 08:56:27;;;;;;;4.00;0.90;;;;;;;8.93;100.00;100402.69;5208698;28;20049;-73
2023/11/16 08:58:58;;;;;;;3.00;0.80;;;;;;;9.01;99.46;100395.50;5189739;28;20060;-73
2023/11/16 09:01:29;;;;;;;3.70;0.70;;;;;;;8.89;99.42;100393.25;5187399;28;20072;-73
2023/11/16 09:03:59;;;;;;;4.22;1.40;;;;;;;8.98;99.71;100392.13;5203950;28;20025;-73
2023/11/16 09:06:30;;;;;;;7.68;2.17;;;;;;;9.04;98.19;100399.75;5203815;28;20078;-74
2023/11/16 09:09:09;;;;;;;3.10;1.20;;;;;;;9.04;98.58;100405.81;5190782;28;20060;-72
2023/11/16 09:11:40;;;;;;;3.35;1.08;;;;;;;9.06;98.43;100403.16;5205336;28;20472;-73
2023/11/16 09:14:10;;;;;;;7.25;2.20;;;;;;;9.09;97.82;100403.06;5207797;28;20022;-74
2023/11/16 09:16:42;;;;;;;6.10;2.58;;;;;;;9.07;98.91;100395.28;5205091;28;20021;-74
2023/11/16 09:19:14;;;;;;;6.60;2.45;;;;;;;9.14;98.79;100400.25;5203954;28;20125;-72
2023/11/16 09:21:45;;;;;;;6.53;2.03;;;;;;;9.12;99.35;100400.34;5190846;28;20029;-72
2023/11/16 09:24:15;;;;;;;8.02;2.10;;;;;;;9.39;99.81;100395.06;5189677;28;20036;-74
2023/11/16 09:26:47;;;;;;;8.27;2.28;;;;;;;9.54;99.36;100403.25;5187121;28;20071;-70
2023/11/16 09:29:19;;;;;;;8.68;2.17;;;;;;;9.39;98.97;100384.63;5205613;28;20030;-73
2023/11/16 09:31:49;;;;;;;14.38;2.33;;;;;;;9.16;100.00;100397.59;5206782;28;20028;-74
2023/11/16 09:34:19;;;;;;;10.73;2.67;;;;;;;9.17;100.00;100407.13;5190193;28;20037;-74
2023/11/16 09:36:50;;;;;;;9.65;2.40;;;;;;;9.06;100.00;100406.59;5208566;28;20375;-72
2023/11/16 09:39:22;;;;;;;9.48;2.75;;;;;;;9.45;100.00;100413.16;5204531;28;20104;-73
2023/11/16 09:41:54;;;;;;;8.00;2.58;;;;;;;9.70;99.06;100406.16;5187763;28;20404;-72
2023/11/16 09:44:28;;;;;;;8.85;2.35;;;;;;;9.61;97.44;100399.50;5201011;28;20052;-70
2023/11/16 09:47:02;;;;;;;9.43;1.80;;;;;;;9.64;96.55;100396.78;5205580;28;20035;-73
2023/11/16 09:49:35;;;;;;;3.60;1.20;;;;;;;9.72;94.92;100393.91;5203233;28;20099;-72
2023/11/16 09:52:06;;;;;;;5.40;1.90;;;;;;;9.93;93.73;100385.31;5206831;28;20350;-72
2023/11/16 09:54:37;;;;;;;5.07;1.58;;;;;;;9.94;93.46;100384.41;5186459;28;20040;-73
2023/11/16 09:57:14;;;;;;;4.85;1.20;;;;;;;9.79;90.19;100375.38;5202844;28;20033;-73
2023/11/16 09:59:48;;;;;;;3.38;1.00;;;;;;;9.78;90.43;100376.28;5188406;28;20261;-72
2023/11/16 10:02:23;;;;;;;5.28;1.23;;;;;;;9.67;90.67;100380.19;5201170;28;20036;-73
2023/11/16 10:04:53;;;;;;;4.90;1.70;;;;;;;9.70;90.94;100373.13;5187594;28;20418;-73
2023/11/16 10:07:26;;;;;;;1.75;1.00;;;;;;;9.89;90.61;100382.00;5208945;28;20037;-69
2023/11/16 10:09:57;;;;;;;3.17;0.85;;;;;;;10.05;87.52;100382.31;5209259;28;20098;-72
2023/11/16 10:12:31;;;;;;;4.53;0.90;;;;;;;10.14;87.23;100393.28;5199799;28;20152;-73
2023/11/16 10:15:01;;;;;;;3.53;0.90;;;;;;;9.97;86.16;100395.59;5205359;28;20036;-72
2023/11/16 10:17:31;;;;;;;2.25;0.85;;;;;;;9.94;86.39;100382.66;5206588;28;20025;-73
2023/11/16 10:20:02;;;;;;;2.38;0.70;;;;;;;9.93;86.29;100373.13;5204045;28;20029;-74
2023/11/16 10:22:32;;;;;;;5.80;0.70;;;;;;;9.78;85.98;100372.81;5205352;28;20029;-74
2023/11/16 10:25:06;;;;;;;2.03;0.70;;;;;;;9.63;85.78;100361.19;5198721;28;20285;-73
2023/11/16 10:27:37;;;;;;;2.30;0.70;;;;;;;9.62;86.28;100356.03;5206043;28;20154;-74
2023/11/16 10:30:12;;;;;;;2.65;0.70;;;;;;;9.57;85.81;100358.78;5187607;28;20441;-73
2023/11/16 10:32:46;;;;;;;15.23;5.72;;;;;;;9.56;85.29;100351.00;5204488;28;20020;-73
2023/11/16 10:35:23;;;;;;;8.73;4.03;;;;;;;9.36;86.87;100348.25;5203801;28;20037;-73
2023/11/16 10:37:54;;;;;;;4.60;2.20;;;;;;;9.33;85.55;100354.41;5203974;28;20037;-74
2023/11/16 10:40:25;;;;;;;8.25;2.55;;;;;;;9.18;86.19;100351.47;5188771;28;20032;-72
2023/11/16 10:42:56;;;;;;;3.72;1.10;;;;;;;9.23;86.68;100349.56;5203131;28;20033;-73
2023/11/16 10:45:27;;;;;;;3.08;1.30;;;;;;;9.25;87.69;100350.34;5203093;28;20490;-73
2023/11/16 10:47:57;;;;;;;4.07;1.58;;;;;;;9.19;88.47;100354.03;5204022;28;20098;-72
2023/11/16 10:50:29;;;;;;;2.95;0.90;;;;;;;9.11;87.75;100363.03;5202073;28;20033;-73
2023/11/16 10:53:02;;;;;;;3.17;1.10;;;;;;;9.10;88.03;100355.25;5205001;28;20410;-72
2023/11/16 10:55:36;;;;;;;6.72;1.50;;;;;;;8.97;89.77;100354.78;5200353;28;20609;-74
2023/11/16 10:58:09;;;;;;;4.65;1.92;;;;;;;8.97;89.66;100362.63;5195297;28;20108;-71
2023/11/16 11:00:41;;;;;;;2.85;0.80;;;;;;;8.91;89.41;100357.56;5201062;28;20467;-72
2023/11/16 11:03:12;;;;;;;4.93;0.80;;;;;;;9.08;90.29;100347.47;5200528;28;20454;-72
2023/11/16 11:05:48;;;;;;;5.63;2.30;;;;;;;9.03;88.88;100356.34;5195146;28;20083;-73
2023/11/16 11:08:20;;;;;;;3.63;0.98;;;;;;;9.24;88.02;100353.88;5194273;28;20379;-73
2023/11/16 11:10:52;;;;;;;3.78;0.98;;;;;;;9.40;88.02;100349.84;5196493;28;20086;-73
2023/11/16 11:13:27;;;;;;;3.28;0.73;;;;;;;9.34;87.01;100344.84;5184793;28;20616;-73
2023/11/16 11:16:05;;;;;;;6.35;1.65;;;;;;;9.34;86.22;100344.84;5206156;28;20033;-73
2023/11/16 11:18:46;;;;;;;1.35;0.50;;;;;;;9.20;85.58;100347.91;5202530;28;20030;-73
2023/11/16 11:21:22;;;;;;;2.63;0.93;;;;;;;9.12;86.60;100337.78;5181392;28;20395;-73
2023/11/16 11:24:05;;;;;;;2.08;1.23;;;;;;;9.07;87.08;100330.13;5202363;28;20029;-73
2023/11/16 11:26:48;;;;;;;5.70;1.73;;;;;;;9.08;87.42;100330.97;5205354;28;20205;-74
2023/11/16 11:29:23;;;;;;;3.17;0.60;;;;;;;8.96;86.03;100339.19;5186297;28;20056;-72
2023/11/16 11:32:07;;;;;;;1.52;0.98;;;;;;;8.94;85.64;100333.19;5189195;28;20259;-74
2023/11/16 11:34:39;;;;;;;5.15;1.48;;;;;;;9.00;86.26;100327.75;5203377;28;20443;-73
2023/11/16 11:37:14;;;;;;;4.22;1.88;;;;;;;9.00;85.29;100326.03;5202950;28;20030;-73
2023/11/16 11:39:46;;;;;;;5.70;1.87;;;;;;;8.99;86.31;100316.50;5185993;28;20036;-70
2023/11/16 11:42:19;;;;;;;4.53;0.77;;;;;;;9.00;85.76;100315.59;5204009;28;20112;-73
2023/11/16 11:44:51;;;;;;;3.83;1.10;;;;;;;8.87;86.47;100332.53;5187785;28;20056;-74
2023/11/16 11:47:24;;;;;;;2.28;1.05;;;;;;;8.97;87.45;100320.03;5186360;28;20116;-70
2023/11/16 11:49:54;;;;;;;3.13;1.13;;;;;;;9.10;85.87;100319.56;5207130;28;20025;-73